sensor_id;sensor_type;location;lat;lon;timestamp;temperature;humidity
7934;DHT22;4012;48.896;9.192;2023-10-13T00:01:46;18.20;99.90
7934;DHT22;4012;48.896;9.192;2023-10-13T00:04:12;18.10;99.90
7934;DHT22;4012;48.896;9.192;2023-10-13T00:06:38;18.20;99.90
7934;DHT22;4012;48.896;9.192;2023-10-13T00:09:03;18.10;99.90
7934;DHT22;4012;48.896;9.192;2023-10-13T00:11:29;18.10;99.90
7934;DHT22;4012;48.896;9.192;2023-10-13T00:13:55;18.10;99.90
7934;DHT22;4012;48.896;9.192;2023-10-13T00:16:21;18.10;99.90
7934;DHT22;4012;48.896;9.192;2023-10-13T00:18:51;18.00;99.90
7934;DHT22;4012;48.896;9.192;2023-10-13T00:21:20;18.00;99.90
7934;DHT22;4012;48.896;9.192;2023-10-13T00:23:57;17.90;99.90
7934;DHT22;4012;48.896;9.192;2023-10-13T00:26:24;17.90;99.90
7934;DHT22;4012;48.896;9.192;2023-10-13T00:28:53;17.80;99.90
7934;DHT22;4012;48.896;9.192;2023-10-13T00:31:39;17.80;99.90
7934;DHT22;4012;48.896;9.192;2023-10-13T00:34:12;17.70;99.90
7934;DHT22;4012;48.896;9.192;2023-10-13T00:36:44;17.70;99.90
7934;DHT22;4012;48.896;9.192;2023-10-13T00:39:28;17.70;99.90
7934;DHT22;4012;48.896;9.192;2023-10-13T00:41:54;17.60;99.90
7934;DHT22;4012;48.896;9.192;2023-10-13T00:44:32;17.60;99.90
7934;DHT22;4012;48.896;9.192;2023-10-13T00:47:15;17.60;99.90
7934;DHT22;4012;48.896;9.192;2023-10-13T00:49:48;17.50;99.90
7934;DHT22;4012;48.896;9.192;2023-10-13T00:52:15;17.50;99.90
7934;DHT22;4012;48.896;9.192;2023-10-13T00:54:44;17.40;99.90
7934;DHT22;4012;48.896;9.192;2023-10-13T00:57:13;17.40;99.90
7934;DHT22;4012;48.896;9.192;2023-10-13T00:59:58;17.40;99.90
7934;DHT22;4012;48.896;9.192;2023-10-13T01:02:25;17.40;99.90
7934;DHT22;4012;48.896;9.192;2023-10-13T01:05:04;17.40;99.90
7934;DHT22;4012;48.896;9.192;2023-10-13T01:07:30;17.40;99.90
7934;DHT22;4012;48.896;9.192;2023-10-13T01:09:55;17.40;99.90
7934;DHT22;4012;48.896;9.192;2023-10-13T01:12:22;17.30;99.90
7934;DHT22;4012;48.896;9.192;2023-10-13T01:14:50;17.30;99.90
7934;DHT22;4012;48.896;9.192;2023-10-13T01:17:16;17.20;99.90
7934;DHT22;4012;48.896;9.192;2023-10-13T01:19:41;17.10;99.90
7934;DHT22;4012;48.896;9.192;2023-10-13T01:22:09;17.10;99.90
7934;DHT22;4012;48.896;9.192;2023-10-13T01:24:35;17.10;99.90
7934;DHT22;4012;48.896;9.192;2023-10-13T01:27:04;17.10;99.90
7934;DHT22;4012;48.896;9.192;2023-10-13T01:29:44;17.10;99.90
7934;DHT22;4012;48.896;9.192;2023-10-13T01:32:24;17.20;99.90
7934;DHT22;4012;48.896;9.192;2023-10-13T01:34:50;17.20;99.90
7934;DHT22;4012;48.896;9.192;2023-10-13T01:37:20;17.20;99.90
7934;DHT22;4012;48.896;9.192;2023-10-13T01:39:47;17.20;99.90
7934;DHT22;4012;48.896;9.192;2023-10-13T01:42:14;17.20;99.90
7934;DHT22;4012;48.896;9.192;2023-10-13T01:44:45;17.20;99.90
7934;DHT22;4012;48.896;9.192;2023-10-13T01:47:11;17.20;99.90
7934;DHT22;4012;48.896;9.192;2023-10-13T01:49:38;17.20;99.90
7934;DHT22;4012;48.896;9.192;2023-10-13T01:52:23;17.20;99.90
7934;DHT22;4012;48.896;9.192;2023-10-13T01:54:50;17.20;99.90
7934;DHT22;4012;48.896;9.192;2023-10-13T01:57:16;17.20;99.90
7934;DHT22;4012;48.896;9.192;2023-10-13T01:59:49;17.10;99.90
7934;DHT22;4012;48.896;9.192;2023-10-13T02:02:15;17.10;99.90
7934;DHT22;4012;48.896;9.192;2023-10-13T02:04:51;17.20;99.90
7934;DHT22;4012;48.896;9.192;2023-10-13T02:07:27;17.20;99.90
7934;DHT22;4012;48.896;9.192;2023-10-13T02:09:56;17.20;99.90
7934;DHT22;4012;48.896;9.192;2023-10-13T02:12:21;17.10;99.90
7934;DHT22;4012;48.896;9.192;2023-10-13T02:15:13;17.10;99.90
7934;DHT22;4012;48.896;9.192;2023-10-13T02:17:53;17.10;99.90
7934;DHT22;4012;48.896;9.192;2023-10-13T02:20:20;17.10;99.90
7934;DHT22;4012;48.896;9.192;2023-10-13T02:22:50;17.10;99.90
7934;DHT22;4012;48.896;9.192;2023-10-13T02:25:17;17.10;99.90
7934;DHT22;4012;48.896;9.192;2023-10-13T02:28:03;17.20;99.90
7934;DHT22;4012;48.896;9.192;2023-10-13T02:30:38;17.20;99.90
7934;DHT22;4012;48.896;9.192;2023-10-13T02:33:03;17.30;99.90
7934;DHT22;4012;48.896;9.192;2023-10-13T02:35:31;17.30;99.90
7934;DHT22;4012;48.896;9.192;2023-10-13T02:38:09;17.40;99.90
7934;DHT22;4012;48.896;9.192;2023-10-13T02:40:39;17.50;99.90
7934;DHT22;4012;48.896;9.192;2023-10-13T02:43:04;17.40;99.90
7934;DHT22;4012;48.896;9.192;2023-10-13T02:45:32;17.50;99.90
7934;DHT22;4012;48.896;9.192;2023-10-13T02:47:58;17.40;99.90
7934;DHT22;4012;48.896;9.192;2023-10-13T02:50:40;17.40;99.90
7934;DHT22;4012;48.896;9.192;2023-10-13T02:53:10;17.40;99.90
7934;DHT22;4012;48.896;9.192;2023-10-13T02:55:59;17.30;99.90
7934;DHT22;4012;48.896;9.192;2023-10-13T02:58:31;17.30;99.90
7934;DHT22;4012;48.896;9.192;2023-10-13T03:01:09;17.20;99.90
7934;DHT22;4012;48.896;9.192;2023-10-13T03:03:43;17.20;99.90
7934;DHT22;4012;48.896;9.192;2023-10-13T03:06:09;17.20;99.90
7934;DHT22;4012;48.896;9.192;2023-10-13T03:08:37;17.20;99.90
7934;DHT22;4012;48.896;9.192;2023-10-13T03:11:03;17.10;99.90
7934;DHT22;4012;48.896;9.192;2023-10-13T03:13:31;17.10;99.90
7934;DHT22;4012;48.896;9.192;2023-10-13T03:15:59;17.10;99.90
7934;DHT22;4012;48.896;9.192;2023-10-13T03:18:24;17.00;99.90
7934;DHT22;4012;48.896;9.192;2023-10-13T03:20:50;17.00;99.90
7934;DHT22;4012;48.896;9.192;2023-10-13T03:23:22;17.00;99.90
7934;DHT22;4012;48.896;9.192;2023-10-13T03:25:50;17.00;99.90
7934;DHT22;4012;48.896;9.192;2023-10-13T03:28:23;16.90;99.90
7934;DHT22;4012;48.896;9.192;2023-10-13T03:30:58;16.90;99.90
7934;DHT22;4012;48.896;9.192;2023-10-13T03:33:26;16.80;99.90
7934;DHT22;4012;48.896;9.192;2023-10-13T03:35:52;16.80;99.90
7934;DHT22;4012;48.896;9.192;2023-10-13T03:38:25;16.80;99.90
7934;DHT22;4012;48.896;9.192;2023-10-13T03:40:52;16.80;99.90
7934;DHT22;4012;48.896;9.192;2023-10-13T03:43:46;16.80;99.90
7934;DHT22;4012;48.896;9.192;2023-10-13T03:46:17;16.80;99.90
7934;DHT22;4012;48.896;9.192;2023-10-13T03:48:47;16.80;99.90
7934;DHT22;4012;48.896;9.192;2023-10-13T03:51:26;16.80;99.90
7934;DHT22;4012;48.896;9.192;2023-10-13T03:53:56;16.80;99.90
7934;DHT22;4012;48.896;9.192;2023-10-13T03:56:28;16.80;99.90
7934;DHT22;4012;48.896;9.192;2023-10-13T03:59:05;16.80;99.90
7934;DHT22;4012;48.896;9.192;2023-10-13T04:01:45;16.80;99.90
7934;DHT22;4012;48.896;9.192;2023-10-13T04:04:17;16.80;99.90
7934;DHT22;4012;48.896;9.192;2023-10-13T04:07:05;16.80;99.90
7934;DHT22;4012;48.896;9.192;2023-10-13T04:09:30;16.70;99.90
7934;DHT22;4012;48.896;9.192;2023-10-13T04:12:03;16.70;99.90
7934;DHT22;4012;48.896;9.192;2023-10-13T04:14:33;16.60;99.90
7934;DHT22;4012;48.896;9.192;2023-10-13T04:17:17;16.60;99.90
7934;DHT22;4012;48.896;9.192;2023-10-13T04:19:52;16.50;99.90
7934;DHT22;4012;48.896;9.192;2023-10-13T04:22:40;16.50;99.90
7934;DHT22;4012;48.896;9.192;2023-10-13T04:27:58;16.50;99.90
7934;DHT22;4012;48.896;9.192;2023-10-13T04:30:43;16.50;99.90
7934;DHT22;4012;48.896;9.192;2023-10-13T04:33:24;16.50;99.90
7934;DHT22;4012;48.896;9.192;2023-10-13T04:36:13;16.50;99.90
7934;DHT22;4012;48.896;9.192;2023-10-13T04:38:58;16.50;99.90
7934;DHT22;4012;48.896;9.192;2023-10-13T04:41:36;16.50;99.90
7934;DHT22;4012;48.896;9.192;2023-10-13T04:44:10;16.50;99.90
7934;DHT22;4012;48.896;9.192;2023-10-13T04:46:56;16.50;99.90
7934;DHT22;4012;48.896;9.192;2023-10-13T04:49:25;16.50;99.90
7934;DHT22;4012;48.896;9.192;2023-10-13T04:51:58;16.50;99.90
7934;DHT22;4012;48.896;9.192;2023-10-13T04:54:28;16.50;99.90
7934;DHT22;4012;48.896;9.192;2023-10-13T04:57:14;16.50;99.90
7934;DHT22;4012;48.896;9.192;2023-10-13T05:00:01;16.50;99.90
7934;DHT22;4012;48.896;9.192;2023-10-13T05:02:40;16.60;99.90
7934;DHT22;4012;48.896;9.192;2023-10-13T05:05:09;16.60;99.90
7934;DHT22;4012;48.896;9.192;2023-10-13T05:07:44;16.60;99.90
7934;DHT22;4012;48.896;9.192;2023-10-13T05:10:33;16.60;99.90
7934;DHT22;4012;48.896;9.192;2023-10-13T05:13:18;16.60;99.90
7934;DHT22;4012;48.896;9.192;2023-10-13T05:16:02;16.60;99.90
7934;DHT22;4012;48.896;9.192;2023-10-13T05:18:46;16.60;99.90
7934;DHT22;4012;48.896;9.192;2023-10-13T05:21:30;16.70;99.90
7934;DHT22;4012;48.896;9.192;2023-10-13T05:24:14;16.60;99.90
7934;DHT22;4012;48.896;9.192;2023-10-13T05:26:58;16.60;99.90
7934;DHT22;4012;48.896;9.192;2023-10-13T05:29:44;16.60;99.90
7934;DHT22;4012;48.896;9.192;2023-10-13T05:32:28;16.60;99.90
7934;DHT22;4012;48.896;9.192;2023-10-13T05:35:13;16.60;99.90
7934;DHT22;4012;48.896;9.192;2023-10-13T05:37:58;16.70;99.90
7934;DHT22;4012;48.896;9.192;2023-10-13T05:41:05;16.60;99.90
7934;DHT22;4012;48.896;9.192;2023-10-13T05:43:49;16.60;99.90
7934;DHT22;4012;48.896;9.192;2023-10-13T05:46:33;16.50;99.90
7934;DHT22;4012;48.896;9.192;2023-10-13T05:49:07;16.50;99.90
7934;DHT22;4012;48.896;9.192;2023-10-13T05:51:33;16.50;99.90
7934;DHT22;4012;48.896;9.192;2023-10-13T05:54:10;16.60;99.90
7934;DHT22;4012;48.896;9.192;2023-10-13T05:56:49;16.60;99.90
7934;DHT22;4012;48.896;9.192;2023-10-13T05:59:37;16.70;99.90
7934;DHT22;4012;48.896;9.192;2023-10-13T06:02:22;16.80;99.90
7934;DHT22;4012;48.896;9.192;2023-10-13T06:05:08;16.90;99.90
7934;DHT22;4012;48.896;9.192;2023-10-13T06:07:53;17.00;99.90
7934;DHT22;4012;48.896;9.192;2023-10-13T06:10:38;17.10;99.90
7934;DHT22;4012;48.896;9.192;2023-10-13T06:13:22;17.20;99.90
7934;DHT22;4012;48.896;9.192;2023-10-13T06:16:14;17.20;99.90
7934;DHT22;4012;48.896;9.192;2023-10-13T06:18:59;17.20;99.90
7934;DHT22;4012;48.896;9.192;2023-10-13T06:21:44;17.30;99.90
7934;DHT22;4012;48.896;9.192;2023-10-13T06:24:28;17.40;99.90
7934;DHT22;4012;48.896;9.192;2023-10-13T06:27:14;17.40;99.90
7934;DHT22;4012;48.896;9.192;2023-10-13T06:29:58;17.50;99.90
7934;DHT22;4012;48.896;9.192;2023-10-13T06:32:24;17.50;99.90
7934;DHT22;4012;48.896;9.192;2023-10-13T06:34:53;17.60;99.90
7934;DHT22;4012;48.896;9.192;2023-10-13T06:37:24;17.50;99.90
7934;DHT22;4012;48.896;9.192;2023-10-13T06:39:56;17.50;99.90
7934;DHT22;4012;48.896;9.192;2023-10-13T06:42:23;17.60;99.90
7934;DHT22;4012;48.896;9.192;2023-10-13T06:44:53;17.60;99.90
7934;DHT22;4012;48.896;9.192;2023-10-13T06:47:19;17.70;99.90
7934;DHT22;4012;48.896;9.192;2023-10-13T06:49:46;17.70;99.90
7934;DHT22;4012;48.896;9.192;2023-10-13T06:52:14;17.70;99.90
7934;DHT22;4012;48.896;9.192;2023-10-13T06:54:41;17.70;99.90
7934;DHT22;4012;48.896;9.192;2023-10-13T06:57:09;17.80;99.90
7934;DHT22;4012;48.896;9.192;2023-10-13T06:59:40;17.90;99.90
7934;DHT22;4012;48.896;9.192;2023-10-13T07:02:06;17.80;99.90
7934;DHT22;4012;48.896;9.192;2023-10-13T07:04:35;17.90;99.90
7934;DHT22;4012;48.896;9.192;2023-10-13T07:07:05;17.80;99.90
7934;DHT22;4012;48.896;9.192;2023-10-13T07:09:34;17.90;99.90
7934;DHT22;4012;48.896;9.192;2023-10-13T07:12:01;17.90;99.90
7934;DHT22;4012;48.896;9.192;2023-10-13T07:14:28;18.00;99.90
7934;DHT22;4012;48.896;9.192;2023-10-13T07:17:06;18.00;99.90
7934;DHT22;4012;48.896;9.192;2023-10-13T07:19:33;18.10;99.90
7934;DHT22;4012;48.896;9.192;2023-10-13T07:22:00;18.20;99.90
7934;DHT22;4012;48.896;9.192;2023-10-13T07:24:49;18.30;99.90
7934;DHT22;4012;48.896;9.192;2023-10-13T07:27:20;18.30;99.90
7934;DHT22;4012;48.896;9.192;2023-10-13T07:29:53;18.40;99.90
7934;DHT22;4012;48.896;9.192;2023-10-13T07:32:43;18.50;99.90
7934;DHT22;4012;48.896;9.192;2023-10-13T07:35:15;18.60;99.90
7934;DHT22;4012;48.896;9.192;2023-10-13T07:37:43;18.70;99.90
7934;DHT22;4012;48.896;9.192;2023-10-13T07:40:09;18.90;99.90
7934;DHT22;4012;48.896;9.192;2023-10-13T07:43:05;19.00;99.90
7934;DHT22;4012;48.896;9.192;2023-10-13T07:45:39;19.40;99.90
7934;DHT22;4012;48.896;9.192;2023-10-13T07:48:07;21.50;99.90
7934;DHT22;4012;48.896;9.192;2023-10-13T07:50:41;24.00;99.90
7934;DHT22;4012;48.896;9.192;2023-10-13T07:53:07;24.70;99.90
7934;DHT22;4012;48.896;9.192;2023-10-13T07:55:49;26.10;99.90
7934;DHT22;4012;48.896;9.192;2023-10-13T07:58:21;27.40;99.90
7934;DHT22;4012;48.896;9.192;2023-10-13T08:00:50;27.80;99.90
7934;DHT22;4012;48.896;9.192;2023-10-13T08:03:34;29.10;99.90
7934;DHT22;4012;48.896;9.192;2023-10-13T08:06:02;30.20;99.90
7934;DHT22;4012;48.896;9.192;2023-10-13T08:08:32;31.10;99.90
7934;DHT22;4012;48.896;9.192;2023-10-13T08:11:09;30.80;99.90
7934;DHT22;4012;48.896;9.192;2023-10-13T08:13:57;30.70;99.90
7934;DHT22;4012;48.896;9.192;2023-10-13T08:16:36;30.40;99.90
7934;DHT22;4012;48.896;9.192;2023-10-13T08:19:15;30.20;99.90
7934;DHT22;4012;48.896;9.192;2023-10-13T08:21:43;30.60;99.90
7934;DHT22;4012;48.896;9.192;2023-10-13T08:24:17;31.00;99.90
7934;DHT22;4012;48.896;9.192;2023-10-13T08:27:02;31.70;99.90
7934;DHT22;4012;48.896;9.192;2023-10-13T08:29:44;31.90;99.90
7934;DHT22;4012;48.896;9.192;2023-10-13T08:32:26;31.10;99.90
7934;DHT22;4012;48.896;9.192;2023-10-13T08:34:53;31.20;99.90
7934;DHT22;4012;48.896;9.192;2023-10-13T08:37:19;31.40;99.90
7934;DHT22;4012;48.896;9.192;2023-10-13T08:39:52;31.20;99.90
7934;DHT22;4012;48.896;9.192;2023-10-13T08:42:37;32.20;99.90
7934;DHT22;4012;48.896;9.192;2023-10-13T08:45:13;32.30;99.90
7934;DHT22;4012;48.896;9.192;2023-10-13T08:47:55;33.40;99.90
7934;DHT22;4012;48.896;9.192;2023-10-13T08:50:48;32.70;99.90
7934;DHT22;4012;48.896;9.192;2023-10-13T08:53:20;33.60;98.70
7934;DHT22;4012;48.896;9.192;2023-10-13T08:56:05;33.10;98.50
7934;DHT22;4012;48.896;9.192;2023-10-13T08:58:36;33.00;98.00
7934;DHT22;4012;48.896;9.192;2023-10-13T09:01:34;32.70;97.00
7934;DHT22;4012;48.896;9.192;2023-10-13T09:04:25;34.20;95.90
7934;DHT22;4012;48.896;9.192;2023-10-13T09:07:03;34.30;94.60
7934;DHT22;4012;48.896;9.192;2023-10-13T09:12:16;33.80;92.50
7934;DHT22;4012;48.896;9.192;2023-10-13T09:14:53;33.20;92.90
7934;DHT22;4012;48.896;9.192;2023-10-13T09:17:49;32.40;93.40
7934;DHT22;4012;48.896;9.192;2023-10-13T09:20:38;32.20;94.20
7934;DHT22;4012;48.896;9.192;2023-10-13T09:23:08;32.50;94.10
7934;DHT22;4012;48.896;9.192;2023-10-13T09:25:39;32.80;93.20
7934;DHT22;4012;48.896;9.192;2023-10-13T09:28:20;33.10;92.40
7934;DHT22;4012;48.896;9.192;2023-10-13T09:30:48;33.10;92.80
7934;DHT22;4012;48.896;9.192;2023-10-13T09:33:23;33.60;92.40
7934;DHT22;4012;48.896;9.192;2023-10-13T09:36:15;34.10;92.20
7934;DHT22;4012;48.896;9.192;2023-10-13T09:38:43;35.00;90.80
7934;DHT22;4012;48.896;9.192;2023-10-13T09:41:29;35.00;90.60
7934;DHT22;4012;48.896;9.192;2023-10-13T09:43:58;34.60;90.30
7934;DHT22;4012;48.896;9.192;2023-10-13T09:46:26;34.80;90.20
7934;DHT22;4012;48.896;9.192;2023-10-13T09:48:58;34.90;90.00
7934;DHT22;4012;48.896;9.192;2023-10-13T09:51:30;34.60;88.70
7934;DHT22;4012;48.896;9.192;2023-10-13T09:54:10;34.40;89.00
7934;DHT22;4012;48.896;9.192;2023-10-13T09:56:43;34.00;89.80
7934;DHT22;4012;48.896;9.192;2023-10-13T09:59:24;34.30;87.90
7934;DHT22;4012;48.896;9.192;2023-10-13T10:02:01;34.40;84.10
7934;DHT22;4012;48.896;9.192;2023-10-13T10:04:34;33.70;83.40
7934;DHT22;4012;48.896;9.192;2023-10-13T10:07:09;34.20;83.50
7934;DHT22;4012;48.896;9.192;2023-10-13T10:09:35;34.50;81.90
7934;DHT22;4012;48.896;9.192;2023-10-13T10:17:42;33.50;82.80
7934;DHT22;4012;48.896;9.192;2023-10-13T10:20:09;33.30;81.80
7934;DHT22;4012;48.896;9.192;2023-10-13T10:22:56;32.50;83.80
7934;DHT22;4012;48.896;9.192;2023-10-13T10:25:34;32.60;82.90
7934;DHT22;4012;48.896;9.192;2023-10-13T10:28:07;33.40;83.50
7934;DHT22;4012;48.896;9.192;2023-10-13T10:30:35;32.70;82.30
7934;DHT22;4012;48.896;9.192;2023-10-13T10:33:05;31.50;83.80
7934;DHT22;4012;48.896;9.192;2023-10-13T10:35:39;29.90;86.60
7934;DHT22;4012;48.896;9.192;2023-10-13T10:38:16;29.20;87.90
7934;DHT22;4012;48.896;9.192;2023-10-13T10:41:02;29.00;89.40
7934;DHT22;4012;48.896;9.192;2023-10-13T10:43:38;28.80;90.10
7934;DHT22;4012;48.896;9.192;2023-10-13T10:46:28;28.90;90.60
7934;DHT22;4012;48.896;9.192;2023-10-13T10:48:56;28.80;90.40
7934;DHT22;4012;48.896;9.192;2023-10-13T10:51:26;28.70;90.60
7934;DHT22;4012;48.896;9.192;2023-10-13T10:53:57;28.60;91.20
7934;DHT22;4012;48.896;9.192;2023-10-13T10:56:25;28.10;91.50
7934;DHT22;4012;48.896;9.192;2023-10-13T10:59:05;27.80;91.90
7934;DHT22;4012;48.896;9.192;2023-10-13T11:01:43;27.60;92.40
7934;DHT22;4012;48.896;9.192;2023-10-13T11:04:13;27.60;92.40
7934;DHT22;4012;48.896;9.192;2023-10-13T11:06:51;27.50;93.10
7934;DHT22;4012;48.896;9.192;2023-10-13T11:14:44;27.20;93.20
7934;DHT22;4012;48.896;9.192;2023-10-13T11:17:20;27.30;93.20
7934;DHT22;4012;48.896;9.192;2023-10-13T11:20:12;27.70;93.60
7934;DHT22;4012;48.896;9.192;2023-10-13T11:22:45;27.70;93.20
7934;DHT22;4012;48.896;9.192;2023-10-13T11:25:20;27.60;93.60
7934;DHT22;4012;48.896;9.192;2023-10-13T11:27:48;27.70;93.40
7934;DHT22;4012;48.896;9.192;2023-10-13T11:30:14;28.00;92.90
7934;DHT22;4012;48.896;9.192;2023-10-13T11:33:07;28.00;92.90
7934;DHT22;4012;48.896;9.192;2023-10-13T11:35:33;27.60;92.40
7934;DHT22;4012;48.896;9.192;2023-10-13T11:38:15;27.40;92.60
7934;DHT22;4012;48.896;9.192;2023-10-13T11:40:41;27.30;92.50
7934;DHT22;4012;48.896;9.192;2023-10-13T11:43:24;27.00;92.20
7934;DHT22;4012;48.896;9.192;2023-10-13T11:45:51;27.00;93.00
7934;DHT22;4012;48.896;9.192;2023-10-13T11:48:21;26.80;92.60
7934;DHT22;4012;48.896;9.192;2023-10-13T11:51:02;27.10;92.80
7934;DHT22;4012;48.896;9.192;2023-10-13T11:53:37;27.30;93.00
7934;DHT22;4012;48.896;9.192;2023-10-13T11:56:04;27.70;92.60
7934;DHT22;4012;48.896;9.192;2023-10-13T11:58:38;27.90;92.70
7934;DHT22;4012;48.896;9.192;2023-10-13T12:01:04;28.20;92.40
7934;DHT22;4012;48.896;9.192;2023-10-13T12:03:43;28.50;92.10
7934;DHT22;4012;48.896;9.192;2023-10-13T12:06:29;28.30;91.90
7934;DHT22;4012;48.896;9.192;2023-10-13T12:09:07;28.10;92.00
7934;DHT22;4012;48.896;9.192;2023-10-13T12:11:48;28.10;91.90
7934;DHT22;4012;48.896;9.192;2023-10-13T12:14:16;28.00;91.20
7934;DHT22;4012;48.896;9.192;2023-10-13T12:16:49;28.10;91.20
7934;DHT22;4012;48.896;9.192;2023-10-13T12:19:19;28.20;90.70
7934;DHT22;4012;48.896;9.192;2023-10-13T12:21:52;28.30;90.30
7934;DHT22;4012;48.896;9.192;2023-10-13T12:24:26;28.20;90.40
7934;DHT22;4012;48.896;9.192;2023-10-13T12:27:07;28.20;90.40
7934;DHT22;4012;48.896;9.192;2023-10-13T12:29:49;28.10;91.00
7934;DHT22;4012;48.896;9.192;2023-10-13T12:32:15;28.20;91.20
7934;DHT22;4012;48.896;9.192;2023-10-13T12:34:46;28.20;91.50
7934;DHT22;4012;48.896;9.192;2023-10-13T12:37:31;28.30;91.30
7934;DHT22;4012;48.896;9.192;2023-10-13T12:40:14;28.20;91.20
7934;DHT22;4012;48.896;9.192;2023-10-13T12:42:58;28.20;91.70
7934;DHT22;4012;48.896;9.192;2023-10-13T12:45:44;28.40;91.60
7934;DHT22;4012;48.896;9.192;2023-10-13T12:48:29;28.40;91.20
7934;DHT22;4012;48.896;9.192;2023-10-13T12:51:13;28.50;91.50
7934;DHT22;4012;48.896;9.192;2023-10-13T12:54:05;28.60;91.30
7934;DHT22;4012;48.896;9.192;2023-10-13T12:56:32;28.70;91.40
7934;DHT22;4012;48.896;9.192;2023-10-13T12:58:58;28.90;91.60
7934;DHT22;4012;48.896;9.192;2023-10-13T13:01:25;28.70;90.80
7934;DHT22;4012;48.896;9.192;2023-10-13T13:03:58;28.60;91.00
7934;DHT22;4012;48.896;9.192;2023-10-13T13:06:25;28.60;90.60
7934;DHT22;4012;48.896;9.192;2023-10-13T13:08:55;28.70;90.80
7934;DHT22;4012;48.896;9.192;2023-10-13T13:11:22;28.70;90.80
7934;DHT22;4012;48.896;9.192;2023-10-13T13:13:48;28.80;91.10
7934;DHT22;4012;48.896;9.192;2023-10-13T13:16:14;29.00;90.70
7934;DHT22;4012;48.896;9.192;2023-10-13T13:18:39;29.00;91.30
7934;DHT22;4012;48.896;9.192;2023-10-13T13:21:05;29.00;90.50
7934;DHT22;4012;48.896;9.192;2023-10-13T13:23:38;29.10;90.50
7934;DHT22;4012;48.896;9.192;2023-10-13T13:26:06;28.80;88.20
7934;DHT22;4012;48.896;9.192;2023-10-13T13:28:41;29.00;88.40
7934;DHT22;4012;48.896;9.192;2023-10-13T13:31:08;28.90;87.80
7934;DHT22;4012;48.896;9.192;2023-10-13T13:33:34;28.80;87.20
7934;DHT22;4012;48.896;9.192;2023-10-13T13:36:05;28.60;87.70
7934;DHT22;4012;48.896;9.192;2023-10-13T13:38:30;28.60;87.20
7934;DHT22;4012;48.896;9.192;2023-10-13T13:40:58;28.60;86.00
7934;DHT22;4012;48.896;9.192;2023-10-13T13:43:24;28.60;86.10
7934;DHT22;4012;48.896;9.192;2023-10-13T13:46:16;28.50;86.50
7934;DHT22;4012;48.896;9.192;2023-10-13T13:48:43;28.30;86.40
7934;DHT22;4012;48.896;9.192;2023-10-13T13:51:09;28.30;85.10
7934;DHT22;4012;48.896;9.192;2023-10-13T13:53:44;28.30;86.00
7934;DHT22;4012;48.896;9.192;2023-10-13T13:56:14;28.30;86.20
7934;DHT22;4012;48.896;9.192;2023-10-13T13:58:48;28.20;86.70
7934;DHT22;4012;48.896;9.192;2023-10-13T14:01:18;28.20;86.00
7934;DHT22;4012;48.896;9.192;2023-10-13T14:03:49;28.20;85.90
7934;DHT22;4012;48.896;9.192;2023-10-13T14:06:22;28.10;86.60
7934;DHT22;4012;48.896;9.192;2023-10-13T14:08:56;28.00;87.50
7934;DHT22;4012;48.896;9.192;2023-10-13T14:11:28;27.90;86.50
7934;DHT22;4012;48.896;9.192;2023-10-13T14:14:06;27.90;87.10
7934;DHT22;4012;48.896;9.192;2023-10-13T14:16:41;27.90;87.30
7934;DHT22;4012;48.896;9.192;2023-10-13T14:19:13;27.80;88.20
7934;DHT22;4012;48.896;9.192;2023-10-13T14:21:57;27.70;87.20
7934;DHT22;4012;48.896;9.192;2023-10-13T14:24:24;27.80;87.20
7934;DHT22;4012;48.896;9.192;2023-10-13T14:26:57;27.70;88.50
7934;DHT22;4012;48.896;9.192;2023-10-13T14:29:27;27.70;87.60
7934;DHT22;4012;48.896;9.192;2023-10-13T14:31:53;27.70;87.60
7934;DHT22;4012;48.896;9.192;2023-10-13T14:34:18;27.70;86.80
7934;DHT22;4012;48.896;9.192;2023-10-13T14:36:47;27.60;87.50
7934;DHT22;4012;48.896;9.192;2023-10-13T14:39:14;27.60;87.30
7934;DHT22;4012;48.896;9.192;2023-10-13T14:41:40;27.50;87.40
7934;DHT22;4012;48.896;9.192;2023-10-13T14:44:06;27.50;86.50
7934;DHT22;4012;48.896;9.192;2023-10-13T14:46:33;27.50;86.40
7934;DHT22;4012;48.896;9.192;2023-10-13T14:49:02;27.40;85.90
7934;DHT22;4012;48.896;9.192;2023-10-13T14:51:28;27.30;84.90
7934;DHT22;4012;48.896;9.192;2023-10-13T14:53:55;27.20;84.70
7934;DHT22;4012;48.896;9.192;2023-10-13T14:56:26;27.10;85.40
7934;DHT22;4012;48.896;9.192;2023-10-13T14:58:52;27.10;85.00
7934;DHT22;4012;48.896;9.192;2023-10-13T15:01:23;27.10;86.00
7934;DHT22;4012;48.896;9.192;2023-10-13T15:03:52;27.00;86.40
7934;DHT22;4012;48.896;9.192;2023-10-13T15:06:24;26.90;87.50
7934;DHT22;4012;48.896;9.192;2023-10-13T15:08:51;26.80;88.80
7934;DHT22;4012;48.896;9.192;2023-10-13T15:11:19;26.70;89.10
7934;DHT22;4012;48.896;9.192;2023-10-13T15:13:44;26.70;89.00
7934;DHT22;4012;48.896;9.192;2023-10-13T15:16:18;26.60;90.20
7934;DHT22;4012;48.896;9.192;2023-10-13T15:18:45;26.60;89.90
7934;DHT22;4012;48.896;9.192;2023-10-13T15:21:27;26.50;90.50
7934;DHT22;4012;48.896;9.192;2023-10-13T15:24:03;26.40;90.90
7934;DHT22;4012;48.896;9.192;2023-10-13T15:26:30;26.30;91.30
7934;DHT22;4012;48.896;9.192;2023-10-13T15:28:57;26.20;91.60
7934;DHT22;4012;48.896;9.192;2023-10-13T15:31:23;26.20;91.60
7934;DHT22;4012;48.896;9.192;2023-10-13T15:34:03;26.10;91.30
7934;DHT22;4012;48.896;9.192;2023-10-13T15:36:44;26.10;91.40
7934;DHT22;4012;48.896;9.192;2023-10-13T15:39:10;26.00;91.70
7934;DHT22;4012;48.896;9.192;2023-10-13T15:41:37;25.90;92.00
7934;DHT22;4012;48.896;9.192;2023-10-13T15:44:10;25.90;91.90
7934;DHT22;4012;48.896;9.192;2023-10-13T15:46:36;25.80;92.10
7934;DHT22;4012;48.896;9.192;2023-10-13T15:49:03;25.80;91.60
7934;DHT22;4012;48.896;9.192;2023-10-13T15:51:32;25.70;91.40
7934;DHT22;4012;48.896;9.192;2023-10-13T15:53:59;25.70;91.50
7934;DHT22;4012;48.896;9.192;2023-10-13T15:56:28;25.50;92.00
7934;DHT22;4012;48.896;9.192;2023-10-13T15:58:58;25.40;91.30
7934;DHT22;4012;48.896;9.192;2023-10-13T16:01:27;25.40;91.00
7934;DHT22;4012;48.896;9.192;2023-10-13T16:03:53;25.40;91.20
7934;DHT22;4012;48.896;9.192;2023-10-13T16:06:19;25.40;90.80
7934;DHT22;4012;48.896;9.192;2023-10-13T16:08:45;25.20;91.40
7934;DHT22;4012;48.896;9.192;2023-10-13T16:11:15;25.30;90.80
7934;DHT22;4012;48.896;9.192;2023-10-13T16:13:47;25.10;91.50
7934;DHT22;4012;48.896;9.192;2023-10-13T16:16:19;25.10;90.90
7934;DHT22;4012;48.896;9.192;2023-10-13T16:18:49;25.10;90.70
7934;DHT22;4012;48.896;9.192;2023-10-13T16:21:16;25.00;90.60
7934;DHT22;4012;48.896;9.192;2023-10-13T16:23:42;24.90;90.70
7934;DHT22;4012;48.896;9.192;2023-10-13T16:26:11;24.80;90.90
7934;DHT22;4012;48.896;9.192;2023-10-13T16:28:38;24.70;90.70
7934;DHT22;4012;48.896;9.192;2023-10-13T16:31:06;24.70;90.80
7934;DHT22;4012;48.896;9.192;2023-10-13T16:33:34;24.50;90.70
7934;DHT22;4012;48.896;9.192;2023-10-13T16:36:02;24.50;90.70
7934;DHT22;4012;48.896;9.192;2023-10-13T16:38:31;24.40;90.70
7934;DHT22;4012;48.896;9.192;2023-10-13T16:40:57;24.40;90.90
7934;DHT22;4012;48.896;9.192;2023-10-13T16:43:22;24.20;91.50
7934;DHT22;4012;48.896;9.192;2023-10-13T16:45:48;24.10;91.10
7934;DHT22;4012;48.896;9.192;2023-10-13T16:48:14;24.10;91.50
7934;DHT22;4012;48.896;9.192;2023-10-13T16:50:45;24.00;91.20
7934;DHT22;4012;48.896;9.192;2023-10-13T16:53:12;23.90;91.10
7934;DHT22;4012;48.896;9.192;2023-10-13T16:55:37;23.90;91.50
7934;DHT22;4012;48.896;9.192;2023-10-13T16:58:08;23.80;91.50
7934;DHT22;4012;48.896;9.192;2023-10-13T17:00:36;23.80;91.00